createdAt,value
2022-07-27T00:03:34.393Z,100629
2022-07-27T00:09:25.482Z,100625
2022-07-27T00:15:22.492Z,100623
2022-07-27T00:21:16.695Z,100624
2022-07-27T00:27:12.775Z,100624
2022-07-27T00:33:04.282Z,100634
2022-07-27T00:38:56.469Z,100627
2022-07-27T00:44:49.062Z,100626
2022-07-27T00:50:43.454Z,100638
2022-07-27T00:56:38.584Z,100624
2022-07-27T01:02:30.907Z,100629
2022-07-27T01:08:34.387Z,100628
2022-07-27T01:14:34.166Z,100633
2022-07-27T01:20:26.456Z,100632
2022-07-27T01:26:19.629Z,100639
2022-07-27T01:32:10.528Z,100637
2022-07-27T01:38:05.794Z,100629
2022-07-27T01:44:00.042Z,100625
2022-07-27T01:49:51.592Z,100623
2022-07-27T01:55:46.783Z,100628
2022-07-27T02:01:38.975Z,100623
2022-07-27T02:07:30.899Z,100636
2022-07-27T02:13:25.797Z,100629
2022-07-27T02:19:19.982Z,100637
2022-07-27T02:25:11.703Z,100630
2022-07-27T02:31:04.051Z,100645
2022-07-27T02:36:56.275Z,100654
2022-07-27T02:42:49.638Z,100649
2022-07-27T02:48:43.153Z,100647
2022-07-27T02:54:36.583Z,100653
2022-07-27T03:00:28.541Z,100648
2022-07-27T03:06:20.906Z,100641
2022-07-27T03:12:15.057Z,100643
2022-07-27T03:18:09.900Z,100634
2022-07-27T03:24:04.351Z,100652
2022-07-27T03:29:55.995Z,100646
2022-07-27T03:35:45.881Z,100650
2022-07-27T03:41:37.470Z,100655
2022-07-27T03:47:27.754Z,100656
2022-07-27T03:53:18.689Z,100660
2022-07-27T03:59:08.395Z,100667
2022-07-27T04:04:58.452Z,100662
2022-07-27T04:10:48.513Z,100670
2022-07-27T04:16:47.168Z,100671
2022-07-27T04:22:39.611Z,100672
2022-07-27T04:28:33.428Z,100677
2022-07-27T04:34:26.865Z,100682
2022-07-27T04:40:20.696Z,100689
2022-07-27T04:46:18.757Z,100685
2022-07-27T04:52:16.268Z,100688
2022-07-27T04:58:17.881Z,100699
2022-07-27T05:04:09.401Z,100700
2022-07-27T05:10:01.293Z,100704
2022-07-27T05:15:59.386Z,100706
2022-07-27T05:21:52.622Z,100707
2022-07-27T05:27:58.510Z,100711
2022-07-27T05:34:02.127Z,100723
2022-07-27T05:40:09.741Z,100725
2022-07-27T05:46:20.491Z,100736
2022-07-27T05:52:23.956Z,100728
2022-07-27T05:58:26.294Z,100742
2022-07-27T06:04:21.374Z,100746
2022-07-27T06:10:14.827Z,100750
2022-07-27T06:16:10.201Z,100758
2022-07-27T06:22:04.935Z,100753
2022-07-27T06:27:59.617Z,100766
2022-07-27T06:33:55.061Z,100765
2022-07-27T06:39:52.686Z,100764
2022-07-27T06:45:42.845Z,100769
2022-07-27T06:51:35.269Z,100764
2022-07-27T06:57:32.742Z,100760
2022-07-27T07:03:29.747Z,100769
2022-07-27T07:09:32.346Z,100760
2022-07-27T07:15:24.595Z,100754
2022-07-27T07:21:19.375Z,100758
2022-07-27T07:27:10.637Z,100763
2022-07-27T07:33:01.729Z,100763
2022-07-27T07:38:53.592Z,100764
2022-07-27T07:44:44.963Z,100761
2022-07-27T07:50:37.868Z,100766
2022-07-27T07:56:30.041Z,100765
2022-07-27T08:02:22.658Z,100765
2022-07-27T08:08:17.897Z,100770
2022-07-27T08:14:15.232Z,100777
2022-07-27T08:20:08.832Z,100773
2022-07-27T08:32:58.604Z,100782
2022-07-27T08:39:00.251Z,100779
2022-07-27T08:44:54.225Z,100766
2022-07-27T08:50:48.551Z,100776
2022-07-27T08:56:43.973Z,100774
2022-07-27T09:02:39.180Z,100774
2022-07-27T09:08:32.581Z,100775
2022-07-27T09:14:38.152Z,100774
2022-07-27T09:20:31.082Z,100776
2022-07-27T09:26:48.236Z,100765
2022-07-27T09:32:55.034Z,100777
2022-07-27T09:39:11.124Z,100762
2022-07-27T09:45:13.852Z,100764
2022-07-27T09:52:03.001Z,100762
2022-07-27T10:15:49.065Z,100754
2022-07-27T10:22:13.047Z,100765
2022-07-27T10:28:12.475Z,100760
2022-07-27T10:54:12.542Z,100766
2022-07-27T11:00:39.733Z,100775
2022-07-27T11:07:44.538Z,100765
2022-07-27T11:14:36.304Z,100762
2022-07-27T11:20:52.811Z,100752
2022-07-27T11:32:47.424Z,100751
2022-07-27T11:38:57.346Z,100758
2022-07-27T11:44:57.363Z,100750
2022-07-27T11:57:50.469Z,100730
2022-07-27T12:27:47.700Z,100705
2022-07-27T12:33:40.991Z,100718
2022-07-27T12:39:45.110Z,100707
2022-07-27T12:45:43.289Z,100694
2022-07-27T12:51:37.146Z,100694
2022-07-27T12:57:58.440Z,100696
2022-07-27T13:03:46.613Z,100685
2022-07-27T13:10:07.024Z,100679
2022-07-27T13:15:56.473Z,100687
2022-07-27T13:21:45.864Z,100702
2022-07-27T13:27:37.360Z,100707
2022-07-27T13:33:31.267Z,100688
2022-07-27T13:39:21.756Z,100696
2022-07-27T13:45:14.962Z,100702
2022-07-27T13:51:08.724Z,100707
2022-07-27T13:56:59.903Z,100705
2022-07-27T14:02:51.178Z,100701
2022-07-27T14:08:42.947Z,100688
2022-07-27T14:14:33.588Z,100699
2022-07-27T14:20:25.193Z,100686
2022-07-27T14:26:16.288Z,100674
2022-07-27T14:32:07.880Z,100682
2022-07-27T14:38:00.963Z,100677
2022-07-27T14:43:53.069Z,100678
2022-07-27T14:49:43.986Z,100663
2022-07-27T14:55:36.028Z,100669
2022-07-27T15:01:27.572Z,100672
2022-07-27T15:07:20.441Z,100661
2022-07-27T15:13:12.452Z,100662
2022-07-27T15:19:04.679Z,100656
2022-07-27T15:24:58.670Z,100648
2022-07-27T15:30:49.115Z,100658
2022-07-27T15:36:53.875Z,100642
2022-07-27T15:42:44.339Z,100637
2022-07-27T15:48:35.328Z,100631
2022-07-27T15:54:29.015Z,100632
2022-07-27T16:00:39.793Z,100623
2022-07-27T16:06:34.062Z,100611
2022-07-27T16:12:28.648Z,100604
2022-07-27T16:18:24.401Z,100596
2022-07-27T16:24:15.133Z,100606
2022-07-27T16:30:06.000Z,100602
2022-07-27T16:35:57.117Z,100587
2022-07-27T16:41:48.058Z,100589
2022-07-27T16:47:39.128Z,100590
2022-07-27T16:53:30.785Z,100585
2022-07-27T16:59:21.155Z,100597
2022-07-27T17:05:10.786Z,100597
2022-07-27T17:11:05.306Z,100584
2022-07-27T17:17:00.656Z,100593
2022-07-27T17:22:50.847Z,100603
2022-07-27T17:28:43.999Z,100592
2022-07-27T17:34:37.199Z,100591
2022-07-27T17:40:28.587Z,100603
2022-07-27T17:46:18.857Z,100602
2022-07-27T17:52:08.926Z,100596
2022-07-27T17:57:59.316Z,100602
2022-07-27T18:03:49.847Z,100603
2022-07-27T18:09:40.250Z,100601
2022-07-27T18:15:31.457Z,100606
2022-07-27T18:21:22.793Z,100608
2022-07-27T18:27:14.049Z,100618
2022-07-27T18:33:06.960Z,100614
2022-07-27T18:38:59.386Z,100619
2022-07-27T18:44:49.623Z,100613
2022-07-27T18:50:44.521Z,100616
2022-07-27T18:56:35.830Z,100603
2022-07-27T19:02:26.886Z,100603
2022-07-27T19:08:19.371Z,100609
2022-07-27T19:14:10.514Z,100614
2022-07-27T19:20:01.286Z,100621
2022-07-27T19:25:52.108Z,100624
2022-07-27T19:31:42.337Z,100627
2022-07-27T19:37:34.042Z,100630
2022-07-27T19:43:24.886Z,100632
2022-07-27T19:49:17.719Z,100632
2022-07-27T19:55:29.104Z,100638
2022-07-27T20:01:29.177Z,100645
2022-07-27T20:07:24.607Z,100644
2022-07-27T20:13:28.266Z,100645
2022-07-27T20:19:20.212Z,100642
2022-07-27T20:25:28.894Z,100652
2022-07-27T20:31:21.357Z,100640
2022-07-27T20:37:12.592Z,100642
2022-07-27T20:43:04.106Z,100661
2022-07-27T20:49:28.544Z,100662
2022-07-27T20:55:33.430Z,100665
2022-07-27T21:01:32.078Z,100660
2022-07-27T21:07:24.067Z,100653
2022-07-27T21:13:29.120Z,100671
2022-07-27T21:19:38.607Z,100663
2022-07-27T21:25:55.242Z,100670
2022-07-27T21:31:51.199Z,100668
2022-07-27T21:37:48.556Z,100665
2022-07-27T21:49:55.215Z,100672
2022-07-27T22:02:11.650Z,100663
2022-07-27T22:14:44.606Z,100669
2022-07-27T22:21:09.447Z,100659
2022-07-27T22:27:13.329Z,100651
2022-07-27T22:33:04.193Z,100652
2022-07-27T22:39:00.928Z,100657
2022-07-27T22:44:54.028Z,100671
2022-07-27T22:50:48.759Z,100679
2022-07-27T22:56:40.088Z,100676
2022-07-27T23:02:36.348Z,100671
2022-07-27T23:08:28.031Z,100681
2022-07-27T23:14:21.116Z,100678
2022-07-27T23:20:14.829Z,100678
2022-07-27T23:26:11.162Z,100675
2022-07-27T23:32:02.402Z,100671
2022-07-27T23:37:53.824Z,100677
2022-07-27T23:43:46.906Z,100666
2022-07-27T23:49:37.752Z,100678
2022-07-27T23:55:32.125Z,100669
